sensor_id;sensor_type;location;lat;lon;timestamp;temperature;humidity
67279;DHT22;54193;53.746;10.058;2023-04-10T00:02:09;5.21;92.82
67279;DHT22;54193;53.746;10.058;2023-04-10T00:04:55;5.21;92.78
67279;DHT22;54193;53.746;10.058;2023-04-10T00:07:41;5.30;92.86
67279;DHT22;54193;53.746;10.058;2023-04-10T00:10:26;5.24;92.70
67279;DHT22;54193;53.746;10.058;2023-04-10T00:13:15;5.26;92.70
67279;DHT22;54193;53.746;10.058;2023-04-10T00:16:01;5.20;92.66
67279;DHT22;54193;53.746;10.058;2023-04-10T00:18:46;5.26;92.71
67279;DHT22;54193;53.746;10.058;2023-04-10T00:21:32;5.27;92.72
67279;DHT22;54193;53.746;10.058;2023-04-10T00:24:18;5.31;92.68
67279;DHT22;54193;53.746;10.058;2023-04-10T00:27:04;5.35;92.65
67279;DHT22;54193;53.746;10.058;2023-04-10T00:29:49;5.30;92.65
67279;DHT22;54193;53.746;10.058;2023-04-10T00:32:35;5.35;92.61
67279;DHT22;54193;53.746;10.058;2023-04-10T00:35:21;5.35;92.59
67279;DHT22;54193;53.746;10.058;2023-04-10T00:38:06;5.31;92.61
67279;DHT22;54193;53.746;10.058;2023-04-10T00:40:52;5.26;92.61
67279;DHT22;54193;53.746;10.058;2023-04-10T00:43:38;5.30;92.68
67279;DHT22;54193;53.746;10.058;2023-04-10T00:46:23;5.32;92.68
67279;DHT22;54193;53.746;10.058;2023-04-10T00:49:09;5.34;92.60
67279;DHT22;54193;53.746;10.058;2023-04-10T00:51:55;5.31;92.59
67279;DHT22;54193;53.746;10.058;2023-04-10T00:54:41;5.32;92.69
67279;DHT22;54193;53.746;10.058;2023-04-10T00:57:27;5.34;92.64
67279;DHT22;54193;53.746;10.058;2023-04-10T01:00:14;5.34;92.62
67279;DHT22;54193;53.746;10.058;2023-04-10T01:03:00;5.38;92.57
67279;DHT22;54193;53.746;10.058;2023-04-10T01:06:11;5.31;92.64
67279;DHT22;54193;53.746;10.058;2023-04-10T01:12:24;5.38;92.62
67279;DHT22;54193;53.746;10.058;2023-04-10T01:15:14;5.34;92.65
67279;DHT22;54193;53.746;10.058;2023-04-10T01:18:15;5.39;92.57
67279;DHT22;54193;53.746;10.058;2023-04-10T01:21:04;5.35;92.63
67279;DHT22;54193;53.746;10.058;2023-04-10T01:24:11;5.31;92.62
67279;DHT22;54193;53.746;10.058;2023-04-10T01:30:05;5.37;92.81
67279;DHT22;54193;53.746;10.058;2023-04-10T01:32:54;5.38;92.62
67279;DHT22;54193;53.746;10.058;2023-04-10T01:35:47;5.45;92.64
67279;DHT22;54193;53.746;10.058;2023-04-10T01:38:34;5.44;92.56
67279;DHT22;54193;53.746;10.058;2023-04-10T01:41:21;5.42;92.50
67279;DHT22;54193;53.746;10.058;2023-04-10T01:44:12;5.41;92.50
67279;DHT22;54193;53.746;10.058;2023-04-10T01:46:59;5.39;92.51
67279;DHT22;54193;53.746;10.058;2023-04-10T01:49:46;5.42;92.49
67279;DHT22;54193;53.746;10.058;2023-04-10T01:52:34;5.37;92.43
67279;DHT22;54193;53.746;10.058;2023-04-10T01:55:20;5.41;92.40
67279;DHT22;54193;53.746;10.058;2023-04-10T01:58:06;5.42;92.33
67279;DHT22;54193;53.746;10.058;2023-04-10T02:00:52;5.44;92.39
67279;DHT22;54193;53.746;10.058;2023-04-10T02:03:38;5.45;92.24
67279;DHT22;54193;53.746;10.058;2023-04-10T02:06:40;5.42;92.27
67279;DHT22;54193;53.746;10.058;2023-04-10T02:15:29;5.52;92.06
67279;DHT22;54193;53.746;10.058;2023-04-10T02:18:17;5.49;91.99
67279;DHT22;54193;53.746;10.058;2023-04-10T02:21:04;5.49;91.99
67279;DHT22;54193;53.746;10.058;2023-04-10T02:23:50;5.52;91.95
67279;DHT22;54193;53.746;10.058;2023-04-10T02:26:46;5.51;91.93
67279;DHT22;54193;53.746;10.058;2023-04-10T02:29:32;5.42;91.97
67279;DHT22;54193;53.746;10.058;2023-04-10T02:32:18;5.39;92.04
67279;DHT22;54193;53.746;10.058;2023-04-10T02:35:03;5.38;92.02
67279;DHT22;54193;53.746;10.058;2023-04-10T02:37:49;5.32;92.13
67279;DHT22;54193;53.746;10.058;2023-04-10T02:40:35;5.28;92.21
67279;DHT22;54193;53.746;10.058;2023-04-10T02:43:21;5.31;92.20
67279;DHT22;54193;53.746;10.058;2023-04-10T02:46:06;5.32;92.21
67279;DHT22;54193;53.746;10.058;2023-04-10T02:48:52;5.26;92.16
67279;DHT22;54193;53.746;10.058;2023-04-10T02:51:38;5.28;92.12
67279;DHT22;54193;53.746;10.058;2023-04-10T02:54:23;5.28;92.05
67279;DHT22;54193;53.746;10.058;2023-04-10T02:57:09;5.28;92.06
67279;DHT22;54193;53.746;10.058;2023-04-10T02:59:55;5.26;92.02
67279;DHT22;54193;53.746;10.058;2023-04-10T03:02:40;5.26;92.03
67279;DHT22;54193;53.746;10.058;2023-04-10T03:05:26;5.17;92.05
67279;DHT22;54193;53.746;10.058;2023-04-10T03:08:12;5.17;92.18
67279;DHT22;54193;53.746;10.058;2023-04-10T03:10:58;5.17;92.14
67279;DHT22;54193;53.746;10.058;2023-04-10T03:13:44;5.17;92.17
67279;DHT22;54193;53.746;10.058;2023-04-10T03:16:29;5.14;92.23
67279;DHT22;54193;53.746;10.058;2023-04-10T03:19:15;5.10;92.23
67279;DHT22;54193;53.746;10.058;2023-04-10T03:22:01;5.10;92.18
67279;DHT22;54193;53.746;10.058;2023-04-10T03:24:46;5.07;92.22
67279;DHT22;54193;53.746;10.058;2023-04-10T03:27:32;5.03;92.23
67279;DHT22;54193;53.746;10.058;2023-04-10T03:30:19;5.07;92.23
67279;DHT22;54193;53.746;10.058;2023-04-10T03:33:05;5.04;92.20
67279;DHT22;54193;53.746;10.058;2023-04-10T03:35:50;5.00;92.15
67279;DHT22;54193;53.746;10.058;2023-04-10T03:38:36;5.07;92.16
67279;DHT22;54193;53.746;10.058;2023-04-10T03:41:21;5.10;92.07
67279;DHT22;54193;53.746;10.058;2023-04-10T03:44:09;5.06;92.04
67279;DHT22;54193;53.746;10.058;2023-04-10T03:46:54;5.04;92.10
67279;DHT22;54193;53.746;10.058;2023-04-10T03:49:40;5.07;92.11
67279;DHT22;54193;53.746;10.058;2023-04-10T03:52:26;5.06;92.03
67279;DHT22;54193;53.746;10.058;2023-04-10T03:55:12;5.07;92.00
67279;DHT22;54193;53.746;10.058;2023-04-10T03:57:58;5.09;91.92
67279;DHT22;54193;53.746;10.058;2023-04-10T04:00:45;5.11;91.87
67279;DHT22;54193;53.746;10.058;2023-04-10T04:03:31;5.13;91.69
67279;DHT22;54193;53.746;10.058;2023-04-10T04:06:16;5.10;91.64
67279;DHT22;54193;53.746;10.058;2023-04-10T04:09:02;5.16;91.66
67279;DHT22;54193;53.746;10.058;2023-04-10T04:11:47;5.11;91.67
67279;DHT22;54193;53.746;10.058;2023-04-10T04:14:33;5.10;91.67
67279;DHT22;54193;53.746;10.058;2023-04-10T04:17:19;5.10;91.72
67279;DHT22;54193;53.746;10.058;2023-04-10T04:20:05;5.04;91.72
67279;DHT22;54193;53.746;10.058;2023-04-10T04:22:52;5.07;91.77
67279;DHT22;54193;53.746;10.058;2023-04-10T04:25:37;5.03;91.73
67279;DHT22;54193;53.746;10.058;2023-04-10T04:28:23;5.01;91.72
67279;DHT22;54193;53.746;10.058;2023-04-10T04:31:09;5.03;91.67
67279;DHT22;54193;53.746;10.058;2023-04-10T04:33:54;5.04;91.47
67279;DHT22;54193;53.746;10.058;2023-04-10T04:36:40;5.03;91.46
67279;DHT22;54193;53.746;10.058;2023-04-10T04:39:26;5.04;91.33
67279;DHT22;54193;53.746;10.058;2023-04-10T04:42:11;5.07;91.36
67279;DHT22;54193;53.746;10.058;2023-04-10T04:44:57;5.07;91.40
67279;DHT22;54193;53.746;10.058;2023-04-10T04:47:42;5.04;91.34
67279;DHT22;54193;53.746;10.058;2023-04-10T04:50:28;5.01;91.39
67279;DHT22;54193;53.746;10.058;2023-04-10T04:53:14;4.99;91.34
67279;DHT22;54193;53.746;10.058;2023-04-10T04:55:59;5.01;91.36
67279;DHT22;54193;53.746;10.058;2023-04-10T04:58:45;5.01;91.25
67279;DHT22;54193;53.746;10.058;2023-04-10T05:01:30;5.07;91.23
67279;DHT22;54193;53.746;10.058;2023-04-10T05:04:16;5.04;91.16
67279;DHT22;54193;53.746;10.058;2023-04-10T05:07:02;5.10;91.13
67279;DHT22;54193;53.746;10.058;2023-04-10T05:09:47;5.16;90.93
67279;DHT22;54193;53.746;10.058;2023-04-10T05:12:33;5.16;90.90
67279;DHT22;54193;53.746;10.058;2023-04-10T05:15:19;5.21;90.98
67279;DHT22;54193;53.746;10.058;2023-04-10T05:18:05;5.28;90.85
67279;DHT22;54193;53.746;10.058;2023-04-10T05:20:50;5.41;90.44
67279;DHT22;54193;53.746;10.058;2023-04-10T05:23:36;5.51;90.24
67279;DHT22;54193;53.746;10.058;2023-04-10T05:26:21;5.67;89.81
67279;DHT22;54193;53.746;10.058;2023-04-10T05:29:07;5.83;89.57
67279;DHT22;54193;53.746;10.058;2023-04-10T05:31:53;5.93;89.27
67279;DHT22;54193;53.746;10.058;2023-04-10T05:34:38;6.10;88.97
67279;DHT22;54193;53.746;10.058;2023-04-10T05:37:24;6.25;88.62
67279;DHT22;54193;53.746;10.058;2023-04-10T05:40:10;6.38;88.35
67279;DHT22;54193;53.746;10.058;2023-04-10T05:42:55;6.52;87.97
67279;DHT22;54193;53.746;10.058;2023-04-10T05:45:44;6.64;87.90
67279;DHT22;54193;53.746;10.058;2023-04-10T05:48:30;6.73;87.40
67279;DHT22;54193;53.746;10.058;2023-04-10T05:51:16;6.75;87.27
67279;DHT22;54193;53.746;10.058;2023-04-10T05:54:01;6.80;87.39
67279;DHT22;54193;53.746;10.058;2023-04-10T05:56:47;6.83;87.10
67279;DHT22;54193;53.746;10.058;2023-04-10T05:59:32;6.92;87.24
67279;DHT22;54193;53.746;10.058;2023-04-10T06:02:18;6.95;86.75
67279;DHT22;54193;53.746;10.058;2023-04-10T06:05:04;7.01;86.43
67279;DHT22;54193;53.746;10.058;2023-04-10T06:07:49;7.07;85.93
67279;DHT22;54193;53.746;10.058;2023-04-10T06:10:36;7.14;85.68
67279;DHT22;54193;53.746;10.058;2023-04-10T06:13:21;7.20;85.98
67279;DHT22;54193;53.746;10.058;2023-04-10T06:16:07;7.27;85.20
67279;DHT22;54193;53.746;10.058;2023-04-10T06:18:53;7.34;85.49
67279;DHT22;54193;53.746;10.058;2023-04-10T06:21:39;7.40;84.73
67279;DHT22;54193;53.746;10.058;2023-04-10T06:24:24;7.50;84.42
67279;DHT22;54193;53.746;10.058;2023-04-10T06:27:10;7.59;84.44
67279;DHT22;54193;53.746;10.058;2023-04-10T06:29:56;7.71;84.28
67279;DHT22;54193;53.746;10.058;2023-04-10T06:32:42;7.81;83.71
67279;DHT22;54193;53.746;10.058;2023-04-10T06:35:27;7.86;83.30
67279;DHT22;54193;53.746;10.058;2023-04-10T06:38:13;7.97;83.40
67279;DHT22;54193;53.746;10.058;2023-04-10T06:40:59;8.06;83.24
67279;DHT22;54193;53.746;10.058;2023-04-10T06:43:44;8.06;82.65
67279;DHT22;54193;53.746;10.058;2023-04-10T06:46:30;8.11;82.74
67279;DHT22;54193;53.746;10.058;2023-04-10T06:49:16;8.14;82.62
67279;DHT22;54193;53.746;10.058;2023-04-10T06:52:01;8.20;82.33
67279;DHT22;54193;53.746;10.058;2023-04-10T06:54:47;8.26;81.90
67279;DHT22;54193;53.746;10.058;2023-04-10T06:57:33;8.41;82.59
67279;DHT22;54193;53.746;10.058;2023-04-10T07:00:18;8.44;81.46
67279;DHT22;54193;53.746;10.058;2023-04-10T07:03:05;8.52;81.38
67279;DHT22;54193;53.746;10.058;2023-04-10T07:05:51;8.71;80.55
67279;DHT22;54193;53.746;10.058;2023-04-10T07:08:36;8.95;79.89
67279;DHT22;54193;53.746;10.058;2023-04-10T07:11:22;9.12;79.85
67279;DHT22;54193;53.746;10.058;2023-04-10T07:14:07;9.33;79.22
67279;DHT22;54193;53.746;10.058;2023-04-10T07:16:53;9.47;77.37
67279;DHT22;54193;53.746;10.058;2023-04-10T07:19:39;9.61;77.77
67279;DHT22;54193;53.746;10.058;2023-04-10T07:22:24;9.83;76.88
67279;DHT22;54193;53.746;10.058;2023-04-10T07:25:10;9.82;75.71
67279;DHT22;54193;53.746;10.058;2023-04-10T07:27:56;9.99;76.27
67279;DHT22;54193;53.746;10.058;2023-04-10T07:30:42;10.16;75.44
67279;DHT22;54193;53.746;10.058;2023-04-10T07:33:27;10.47;73.93
67279;DHT22;54193;53.746;10.058;2023-04-10T07:36:13;10.75;72.13
67279;DHT22;54193;53.746;10.058;2023-04-10T07:38:58;10.93;71.10
67279;DHT22;54193;53.746;10.058;2023-04-10T07:41:44;11.37;71.96
67279;DHT22;54193;53.746;10.058;2023-04-10T07:44:30;11.63;71.29
67279;DHT22;54193;53.746;10.058;2023-04-10T07:47:16;11.94;68.83
67279;DHT22;54193;53.746;10.058;2023-04-10T07:50:03;12.19;68.42
67279;DHT22;54193;53.746;10.058;2023-04-10T07:52:48;12.41;66.79
67279;DHT22;54193;53.746;10.058;2023-04-10T07:55:42;12.70;66.23
67279;DHT22;54193;53.746;10.058;2023-04-10T07:58:28;12.74;65.25
67279;DHT22;54193;53.746;10.058;2023-04-10T08:01:15;12.98;65.74
67279;DHT22;54193;53.746;10.058;2023-04-10T08:04:01;13.11;64.09
67279;DHT22;54193;53.746;10.058;2023-04-10T08:06:47;13.30;61.57
67279;DHT22;54193;53.746;10.058;2023-04-10T08:09:34;13.59;62.16
67279;DHT22;54193;53.746;10.058;2023-04-10T08:12:20;13.71;60.39
67279;DHT22;54193;53.746;10.058;2023-04-10T08:15:06;13.75;61.30
67279;DHT22;54193;53.746;10.058;2023-04-10T08:17:51;14.14;60.07
67279;DHT22;54193;53.746;10.058;2023-04-10T08:20:38;14.32;59.89
67279;DHT22;54193;53.746;10.058;2023-04-10T08:23:23;14.40;57.69
67279;DHT22;54193;53.746;10.058;2023-04-10T08:26:09;14.63;57.78
67279;DHT22;54193;53.746;10.058;2023-04-10T08:28:57;14.87;57.42
67279;DHT22;54193;53.746;10.058;2023-04-10T08:31:43;14.76;55.83
67279;DHT22;54193;53.746;10.058;2023-04-10T08:34:28;14.91;57.63
67279;DHT22;54193;53.746;10.058;2023-04-10T08:37:14;15.04;56.31
67279;DHT22;54193;53.746;10.058;2023-04-10T08:40:00;15.22;56.27
67279;DHT22;54193;53.746;10.058;2023-04-10T08:42:45;15.02;56.42
67279;DHT22;54193;53.746;10.058;2023-04-10T08:45:32;14.92;57.27
67279;DHT22;54193;53.746;10.058;2023-04-10T08:48:18;15.15;56.63
67279;DHT22;54193;53.746;10.058;2023-04-10T08:51:06;15.14;54.36
67279;DHT22;54193;53.746;10.058;2023-04-10T08:53:57;15.43;55.69
67279;DHT22;54193;53.746;10.058;2023-04-10T08:56:49;16.24;54.26
67279;DHT22;54193;53.746;10.058;2023-04-10T08:59:35;16.58;52.79
67279;DHT22;54193;53.746;10.058;2023-04-10T09:02:21;17.07;51.51
67279;DHT22;54193;53.746;10.058;2023-04-10T09:05:10;17.27;52.18
67279;DHT22;54193;53.746;10.058;2023-04-10T09:07:56;17.89;50.06
67279;DHT22;54193;53.746;10.058;2023-04-10T09:10:42;17.94;49.46
67279;DHT22;54193;53.746;10.058;2023-04-10T09:13:38;17.48;50.58
67279;DHT22;54193;53.746;10.058;2023-04-10T09:16:27;17.75;48.63
67279;DHT22;54193;53.746;10.058;2023-04-10T09:19:28;18.30;48.25
67279;DHT22;54193;53.746;10.058;2023-04-10T09:22:15;18.38;47.05
67279;DHT22;54193;53.746;10.058;2023-04-10T09:25:03;18.54;48.18
67279;DHT22;54193;53.746;10.058;2023-04-10T09:27:58;18.62;46.28
67279;DHT22;54193;53.746;10.058;2023-04-10T09:30:45;18.73;48.21
67279;DHT22;54193;53.746;10.058;2023-04-10T09:33:31;19.35;46.83
67279;DHT22;54193;53.746;10.058;2023-04-10T09:36:17;19.74;46.14
67279;DHT22;54193;53.746;10.058;2023-04-10T09:39:03;18.66;44.92
67279;DHT22;54193;53.746;10.058;2023-04-10T09:41:53;19.24;44.51
67279;DHT22;54193;53.746;10.058;2023-04-10T09:44:42;19.38;45.43
67279;DHT22;54193;53.746;10.058;2023-04-10T09:47:28;18.61;45.19
67279;DHT22;54193;53.746;10.058;2023-04-10T09:50:14;18.83;45.51
67279;DHT22;54193;53.746;10.058;2023-04-10T09:53:00;19.30;45.48
67279;DHT22;54193;53.746;10.058;2023-04-10T09:55:47;18.99;42.20
67279;DHT22;54193;53.746;10.058;2023-04-10T09:58:33;19.48;42.93
67279;DHT22;54193;53.746;10.058;2023-04-10T10:01:20;19.82;42.33
67279;DHT22;54193;53.746;10.058;2023-04-10T10:04:06;19.67;42.65
67279;DHT22;54193;53.746;10.058;2023-04-10T10:06:52;18.99;42.11
67279;DHT22;54193;53.746;10.058;2023-04-10T10:09:39;18.58;46.10
67279;DHT22;54193;53.746;10.058;2023-04-10T10:12:33;17.65;46.24
67279;DHT22;54193;53.746;10.058;2023-04-10T10:15:38;17.04;48.43
67279;DHT22;54193;53.746;10.058;2023-04-10T10:18:47;16.58;48.30
67279;DHT22;54193;53.746;10.058;2023-04-10T10:21:37;16.48;48.42
67279;DHT22;54193;53.746;10.058;2023-04-10T10:24:23;16.58;49.11
67279;DHT22;54193;53.746;10.058;2023-04-10T10:27:10;16.35;48.45
67279;DHT22;54193;53.746;10.058;2023-04-10T10:29:59;16.44;48.41
67279;DHT22;54193;53.746;10.058;2023-04-10T10:32:45;16.49;48.26
67279;DHT22;54193;53.746;10.058;2023-04-10T10:35:35;16.33;48.62
67279;DHT22;54193;53.746;10.058;2023-04-10T10:38:21;16.35;48.74
67279;DHT22;54193;53.746;10.058;2023-04-10T10:41:12;16.56;50.01
67279;DHT22;54193;53.746;10.058;2023-04-10T10:44:14;16.70;48.24
67279;DHT22;54193;53.746;10.058;2023-04-10T10:47:09;16.63;48.04
67279;DHT22;54193;53.746;10.058;2023-04-10T10:50:02;16.52;47.83
67279;DHT22;54193;53.746;10.058;2023-04-10T10:52:50;16.44;49.10
67279;DHT22;54193;53.746;10.058;2023-04-10T10:55:38;16.49;48.03
67279;DHT22;54193;53.746;10.058;2023-04-10T10:58:49;16.83;47.06
67279;DHT22;54193;53.746;10.058;2023-04-10T11:01:35;16.60;45.86
67279;DHT22;54193;53.746;10.058;2023-04-10T11:04:40;16.62;46.36
67279;DHT22;54193;53.746;10.058;2023-04-10T11:16:41;16.59;45.95
67279;DHT22;54193;53.746;10.058;2023-04-10T11:19:28;16.70;46.94
67279;DHT22;54193;53.746;10.058;2023-04-10T11:22:14;16.51;46.42
67279;DHT22;54193;53.746;10.058;2023-04-10T11:25:00;16.53;45.96
67279;DHT22;54193;53.746;10.058;2023-04-10T11:27:46;16.51;45.99
67279;DHT22;54193;53.746;10.058;2023-04-10T11:30:36;16.70;45.53
67279;DHT22;54193;53.746;10.058;2023-04-10T11:33:22;16.65;45.89
67279;DHT22;54193;53.746;10.058;2023-04-10T11:36:07;16.70;45.22
67279;DHT22;54193;53.746;10.058;2023-04-10T11:39:01;16.81;45.33
67279;DHT22;54193;53.746;10.058;2023-04-10T11:41:51;16.84;44.53
67279;DHT22;54193;53.746;10.058;2023-04-10T11:44:37;16.81;44.98
67279;DHT22;54193;53.746;10.058;2023-04-10T11:47:27;16.86;44.73
67279;DHT22;54193;53.746;10.058;2023-04-10T11:50:13;16.77;44.95
67279;DHT22;54193;53.746;10.058;2023-04-10T11:52:58;16.89;45.00
67279;DHT22;54193;53.746;10.058;2023-04-10T11:55:45;16.72;44.79
67279;DHT22;54193;53.746;10.058;2023-04-10T11:58:31;16.72;44.94
67279;DHT22;54193;53.746;10.058;2023-04-10T12:01:20;16.86;45.12
67279;DHT22;54193;53.746;10.058;2023-04-10T12:04:16;16.79;44.81
67279;DHT22;54193;53.746;10.058;2023-04-10T12:07:02;17.06;44.02
67279;DHT22;54193;53.746;10.058;2023-04-10T12:09:57;16.86;43.85
67279;DHT22;54193;53.746;10.058;2023-04-10T12:12:43;16.79;44.52
67279;DHT22;54193;53.746;10.058;2023-04-10T12:15:28;16.96;43.93
67279;DHT22;54193;53.746;10.058;2023-04-10T12:18:14;16.87;43.23
67279;DHT22;54193;53.746;10.058;2023-04-10T12:21:01;17.00;44.34
67279;DHT22;54193;53.746;10.058;2023-04-10T12:23:46;16.83;43.90
67279;DHT22;54193;53.746;10.058;2023-04-10T12:26:32;16.77;42.73
67279;DHT22;54193;53.746;10.058;2023-04-10T12:29:18;16.86;43.47
67279;DHT22;54193;53.746;10.058;2023-04-10T12:32:07;16.96;43.53
67279;DHT22;54193;53.746;10.058;2023-04-10T12:34:56;17.03;42.68
67279;DHT22;54193;53.746;10.058;2023-04-10T12:37:51;17.14;41.87
67279;DHT22;54193;53.746;10.058;2023-04-10T12:40:56;17.04;42.99
67279;DHT22;54193;53.746;10.058;2023-04-10T12:43:42;17.21;42.74
67279;DHT22;54193;53.746;10.058;2023-04-10T12:46:29;17.30;41.89
67279;DHT22;54193;53.746;10.058;2023-04-10T12:49:16;17.25;41.82
67279;DHT22;54193;53.746;10.058;2023-04-10T12:52:05;17.30;40.31
67279;DHT22;54193;53.746;10.058;2023-04-10T12:54:51;17.45;41.96
67279;DHT22;54193;53.746;10.058;2023-04-10T12:57:36;17.59;42.46
67279;DHT22;54193;53.746;10.058;2023-04-10T13:00:22;17.87;41.50
67279;DHT22;54193;53.746;10.058;2023-04-10T13:03:09;17.79;40.21
67279;DHT22;54193;53.746;10.058;2023-04-10T13:05:55;17.51;40.13
67279;DHT22;54193;53.746;10.058;2023-04-10T13:08:41;17.35;40.72
67279;DHT22;54193;53.746;10.058;2023-04-10T13:11:26;17.41;40.06
67279;DHT22;54193;53.746;10.058;2023-04-10T13:14:12;17.44;40.51
67279;DHT22;54193;53.746;10.058;2023-04-10T13:16:58;17.32;40.06
67279;DHT22;54193;53.746;10.058;2023-04-10T13:19:43;17.17;39.65
67279;DHT22;54193;53.746;10.058;2023-04-10T13:22:29;17.35;40.62
67279;DHT22;54193;53.746;10.058;2023-04-10T13:25:14;17.25;40.62
67279;DHT22;54193;53.746;10.058;2023-04-10T13:28:00;17.32;40.45
67279;DHT22;54193;53.746;10.058;2023-04-10T13:30:46;17.34;40.12
67279;DHT22;54193;53.746;10.058;2023-04-10T13:33:32;17.51;40.44
67279;DHT22;54193;53.746;10.058;2023-04-10T13:36:17;17.38;39.97
67279;DHT22;54193;53.746;10.058;2023-04-10T13:39:03;17.44;39.95
67279;DHT22;54193;53.746;10.058;2023-04-10T13:41:48;17.42;40.64
67279;DHT22;54193;53.746;10.058;2023-04-10T13:44:34;17.45;40.14
67279;DHT22;54193;53.746;10.058;2023-04-10T13:47:20;17.15;40.58
67279;DHT22;54193;53.746;10.058;2023-04-10T13:50:06;17.24;40.62
67279;DHT22;54193;53.746;10.058;2023-04-10T13:52:51;17.23;40.52
67279;DHT22;54193;53.746;10.058;2023-04-10T13:55:37;17.27;40.58
67279;DHT22;54193;53.746;10.058;2023-04-10T13:58:27;17.14;39.72
67279;DHT22;54193;53.746;10.058;2023-04-10T14:01:16;17.21;40.09
67279;DHT22;54193;53.746;10.058;2023-04-10T14:04:02;17.06;40.52
67279;DHT22;54193;53.746;10.058;2023-04-10T14:06:47;17.10;41.14
67279;DHT22;54193;53.746;10.058;2023-04-10T14:09:34;17.11;41.27
67279;DHT22;54193;53.746;10.058;2023-04-10T14:12:20;17.15;41.49
67279;DHT22;54193;53.746;10.058;2023-04-10T14:15:07;17.11;41.42
67279;DHT22;54193;53.746;10.058;2023-04-10T14:17:53;17.11;41.31
67279;DHT22;54193;53.746;10.058;2023-04-10T14:20:39;17.08;41.84
67279;DHT22;54193;53.746;10.058;2023-04-10T14:23:26;17.13;41.74
67279;DHT22;54193;53.746;10.058;2023-04-10T14:26:12;17.08;41.25
67279;DHT22;54193;53.746;10.058;2023-04-10T14:28:57;17.14;41.71
67279;DHT22;54193;53.746;10.058;2023-04-10T14:31:43;17.10;41.66
67279;DHT22;54193;53.746;10.058;2023-04-10T14:34:29;17.07;41.07
67279;DHT22;54193;53.746;10.058;2023-04-10T14:37:14;17.11;41.75
67279;DHT22;54193;53.746;10.058;2023-04-10T14:40:00;17.21;42.49
67279;DHT22;54193;53.746;10.058;2023-04-10T14:42:46;17.31;41.69
67279;DHT22;54193;53.746;10.058;2023-04-10T14:45:32;17.20;42.25
67279;DHT22;54193;53.746;10.058;2023-04-10T14:48:18;17.18;42.00
67279;DHT22;54193;53.746;10.058;2023-04-10T14:51:07;17.11;43.04
67279;DHT22;54193;53.746;10.058;2023-04-10T14:53:57;17.15;42.60
67279;DHT22;54193;53.746;10.058;2023-04-10T14:56:42;17.10;43.52
67279;DHT22;54193;53.746;10.058;2023-04-10T14:59:28;17.10;43.97
67279;DHT22;54193;53.746;10.058;2023-04-10T15:02:13;17.08;44.07
67279;DHT22;54193;53.746;10.058;2023-04-10T15:04:59;17.04;43.77
67279;DHT22;54193;53.746;10.058;2023-04-10T15:07:45;17.04;44.48
67279;DHT22;54193;53.746;10.058;2023-04-10T15:10:31;17.13;44.11
67279;DHT22;54193;53.746;10.058;2023-04-10T15:13:17;17.11;44.73
67279;DHT22;54193;53.746;10.058;2023-04-10T15:16:04;17.21;44.46
67279;DHT22;54193;53.746;10.058;2023-04-10T15:18:50;17.18;44.79
67279;DHT22;54193;53.746;10.058;2023-04-10T15:21:36;17.27;44.94
67279;DHT22;54193;53.746;10.058;2023-04-10T15:24:21;17.31;45.14
67279;DHT22;54193;53.746;10.058;2023-04-10T15:27:07;17.30;44.58
67279;DHT22;54193;53.746;10.058;2023-04-10T15:29:53;17.30;44.40
67279;DHT22;54193;53.746;10.058;2023-04-10T15:32:38;17.23;44.12
67279;DHT22;54193;53.746;10.058;2023-04-10T15:35:24;17.14;44.32
67279;DHT22;54193;53.746;10.058;2023-04-10T15:38:12;17.13;44.59
67279;DHT22;54193;53.746;10.058;2023-04-10T15:40:58;17.04;44.90
67279;DHT22;54193;53.746;10.058;2023-04-10T15:43:44;17.03;45.39
67279;DHT22;54193;53.746;10.058;2023-04-10T15:46:29;16.90;46.02
67279;DHT22;54193;53.746;10.058;2023-04-10T15:49:17;16.94;47.04
67279;DHT22;54193;53.746;10.058;2023-04-10T15:52:04;16.86;46.01
67279;DHT22;54193;53.746;10.058;2023-04-10T15:54:50;16.93;45.94
67279;DHT22;54193;53.746;10.058;2023-04-10T15:57:37;17.13;46.16
67279;DHT22;54193;53.746;10.058;2023-04-10T16:00:22;17.17;45.62
67279;DHT22;54193;53.746;10.058;2023-04-10T16:03:08;17.14;44.94
67279;DHT22;54193;53.746;10.058;2023-04-10T16:05:53;17.11;45.12
67279;DHT22;54193;53.746;10.058;2023-04-10T16:08:40;17.10;45.42
67279;DHT22;54193;53.746;10.058;2023-04-10T16:11:25;16.87;44.31
67279;DHT22;54193;53.746;10.058;2023-04-10T16:14:11;16.65;44.73
67279;DHT22;54193;53.746;10.058;2023-04-10T16:16:56;16.51;45.38
67279;DHT22;54193;53.746;10.058;2023-04-10T16:19:42;16.35;45.97
67279;DHT22;54193;53.746;10.058;2023-04-10T16:22:27;16.24;46.28
67279;DHT22;54193;53.746;10.058;2023-04-10T16:25:13;16.17;45.88
67279;DHT22;54193;53.746;10.058;2023-04-10T16:28:00;16.14;46.27
67279;DHT22;54193;53.746;10.058;2023-04-10T16:30:46;16.14;46.51
67279;DHT22;54193;53.746;10.058;2023-04-10T16:33:31;16.15;46.56
67279;DHT22;54193;53.746;10.058;2023-04-10T16:36:17;16.10;47.77
67279;DHT22;54193;53.746;10.058;2023-04-10T16:39:02;16.03;47.92
67279;DHT22;54193;53.746;10.058;2023-04-10T16:41:48;15.98;48.35
67279;DHT22;54193;53.746;10.058;2023-04-10T16:44:34;15.94;49.04
67279;DHT22;54193;53.746;10.058;2023-04-10T16:47:20;15.90;49.13
67279;DHT22;54193;53.746;10.058;2023-04-10T16:50:06;15.82;49.47
67279;DHT22;54193;53.746;10.058;2023-04-10T16:52:53;15.73;49.39
67279;DHT22;54193;53.746;10.058;2023-04-10T16:55:38;15.66;49.99
67279;DHT22;54193;53.746;10.058;2023-04-10T16:58:24;15.59;50.91
67279;DHT22;54193;53.746;10.058;2023-04-10T17:01:17;15.55;50.75
67279;DHT22;54193;53.746;10.058;2023-04-10T17:04:03;15.48;50.47
67279;DHT22;54193;53.746;10.058;2023-04-10T17:06:49;15.49;50.29
67279;DHT22;54193;53.746;10.058;2023-04-10T17:09:35;15.42;50.79
67279;DHT22;54193;53.746;10.058;2023-04-10T17:12:22;15.39;51.02
67279;DHT22;54193;53.746;10.058;2023-04-10T17:15:07;15.34;51.42
67279;DHT22;54193;53.746;10.058;2023-04-10T17:17:53;15.25;52.05
67279;DHT22;54193;53.746;10.058;2023-04-10T17:20:39;15.25;51.13
67279;DHT22;54193;53.746;10.058;2023-04-10T17:23:25;15.19;51.64
67279;DHT22;54193;53.746;10.058;2023-04-10T17:26:14;15.15;51.87
67279;DHT22;54193;53.746;10.058;2023-04-10T17:29:00;15.15;51.79
67279;DHT22;54193;53.746;10.058;2023-04-10T17:31:46;15.15;51.59
67279;DHT22;54193;53.746;10.058;2023-04-10T17:34:32;15.12;51.70
67279;DHT22;54193;53.746;10.058;2023-04-10T17:37:18;15.10;52.12
67279;DHT22;54193;53.746;10.058;2023-04-10T17:40:04;15.07;52.35
67279;DHT22;54193;53.746;10.058;2023-04-10T17:42:50;15.02;52.51
67279;DHT22;54193;53.746;10.058;2023-04-10T17:45:39;15.01;52.51
67279;DHT22;54193;53.746;10.058;2023-04-10T17:48:25;15.01;52.44